Smith Valley, Nevada Weather observations

Data are for 10 minute period ending at time listed.
 Day   Time   Solar   Ave.   Ave.  Ave.  Vector  Max.   Baro.   Total    
  of    of     Rad.   Air    Rel.  Wind   Wind   Wind  Press.  Precip.   
Year   Day            Temp.  Hum.  Speed  Dir.   Gust                    
2017   (PST)  Kw/m2    F      %     mph   deg.    mph    mb.     in.     
-------------------------------------------------------------------------
  35   20:50   0.00   40.6    53    6.8   151     9.3   852.8    0.00 
  35   21:00   0.00   39.8    56    4.9   174     8.5   852.9    0.00 
  35   21:10   0.00   38.0    59    4.3   158     5.5   852.9    0.00 
  35   21:20   0.00   37.1    60    4.6   186     6.1   852.9    0.00 
  35   21:30   0.00   36.6    62    4.4   193     6.2   853.0    0.00 
  35   21:40   0.00   35.9    64    5.0   194     6.4   852.9    0.00 
  35   21:50   0.00   35.5    65    4.6   191     6.0   852.9    0.00 
  35   22:00   0.00   34.8    69    4.3   191     6.6   853.0    0.00 
  35   22:10   0.00   35.3    64    4.6   109     7.9   853.2    0.00 
  35   22:20   0.00   34.1    70    4.6   109     6.8   853.3    0.00 
  35   22:30   0.00   33.7    70    4.6   105     5.7   853.4    0.00 
  35   22:40   0.00   32.9    73    5.1   116     6.1   853.4    0.00 
  35   22:50   0.00   33.2    71    5.2   119     8.3   853.4    0.00 
  35   23:00   0.00   34.7    66    6.1   132     8.2   853.4    0.00 
  35   23:10   0.00   34.4    68    5.3   213    10.2   853.4    0.00 
  35   23:20   0.00   32.6    73    2.2   240     5.2   853.5    0.00 
  35   23:30   0.00   31.8    75    2.0   191     3.5   853.4    0.00 
  35   23:40   0.00   31.6    75    2.2   214     6.6   853.5    0.00 
  35   23:50   0.00   31.3    77    2.3   188     5.3   853.4    0.00 
  36    0:00   0.00   30.6    79    3.5   156     8.6   853.2    0.00 
  36    0:10   0.00   31.5    74    4.2   138     6.6   853.2    0.00 
  36    0:20   0.00   33.0    68    4.0   170     6.5   853.3    0.00 
  36    0:30   0.00   32.7    69    4.1   193     8.6   853.2    0.00 
  36    0:40   0.00   32.2    71    3.5   165     6.2   853.0    0.00 
  36    0:50   0.00   31.7    71    2.9   171     4.6   852.9    0.00 
  36    1:00   0.00   32.9    66    3.7   151     5.6   852.9    0.00 
  36    1:10   0.00   31.2    73    2.9   149     6.7   852.9    0.00 
  36    1:20   0.00   30.8    72    3.2   142     5.4   852.9    0.00 
  36    1:30   0.00   31.6    70    2.7   268     5.2   852.8    0.00 
  36    1:40   0.00   32.1    70    3.3   308     5.8   852.9    0.00 
  36    1:50   0.00   31.2    75    2.0   301     2.7   852.9    0.00 
  36    2:00   0.00   30.8    75    0.6   343     2.1   852.9    0.00 
  36    2:10   0.00   30.5    77    0.6    58     1.5   852.9    0.00 
  36    2:20   0.00   29.6    78    1.7   236     3.1   852.9    0.00 
  36    2:30   0.00   28.8    81    1.8   217     2.6   852.8    0.00 
  36    2:40   0.00   28.0    83    0.9   235     1.7   852.8    0.00 
  36    2:50   0.00   27.7    84    0.3   235     1.3   852.7    0.00 
  36    3:00   0.00   27.5    86    0.2   310     2.0   852.6    0.00 
  36    3:10   0.00   28.2    82    1.2    31     2.1   852.4    0.00 
  36    3:20   0.00   29.0    80    0.9    63     2.0   852.3    0.00 
  36    3:30   0.00   29.4    78    0.9    14     2.3   852.2    0.00 
  36    3:40   0.00   29.6    79    1.8   230     4.8   852.1    0.00 
  36    3:50   0.00   27.9    86    2.0   189     2.9   852.2    0.00 
  36    4:00   0.00   27.2    86    1.7   171     4.2   852.2    0.00 
  36    4:10   0.00   27.0    87    2.0    92     4.2   852.1    0.00 
  36    4:20   0.00   26.8    89    3.1   167     4.9   851.9    0.00 
  36    4:30   0.00   26.9    88    4.1   189     6.4   851.9    0.00 
  36    4:40   0.00   27.1    86    3.6   149     5.2   851.8    0.00 
  36    4:50   0.00   27.2    85    3.1   128     5.2   851.7    0.00 
  36    5:00   0.00   27.2    86    2.7   174     5.0   851.7    0.00 
  36    5:10   0.00   26.6    88    2.7   187     5.3   851.8    0.00 
  36    5:20   0.00   26.6    88    2.7   188     3.7   851.7    0.00 
  36    5:30   0.00   26.5    89    0.4   310     1.8   851.7    0.00 
  36    5:40   0.00   26.8    87    1.1   110     2.5   851.7    0.00 
  36    5:50   0.00   26.8    87    0.6    98     2.2   851.6    0.00 
  36    6:00   0.00   26.0    89    2.1    44     3.3   851.5    0.00 
  36    6:10   0.00   25.9    89    2.8    80     3.9   851.3    0.00 
  36    6:20   0.00   25.3    90    2.6   124     4.8   851.4    0.00 
  36    6:30   0.00   25.3    91    1.9   201     3.5   851.4    0.00 
  36    6:40   0.00   25.1    91    1.9   192     2.7   851.4    0.00 
  36    6:50   0.00   24.9    91    0.9   182     2.1   851.5    0.00 
  36    7:00   0.00   25.5    90    1.1   146     2.6   851.5    0.00 
  36    7:10   0.01   27.2    84    1.8   150     2.5   851.5    0.00 
  36    7:20   0.01   26.2    86    1.8   209     2.9   851.6    0.00 
  36    7:30   0.02   26.0    87    2.0   253     4.5   851.5    0.00 
  36    7:40   0.04   26.2    88    1.1   257     2.5   851.5    0.00 
  36    7:50   0.05   26.9    88    0.4   242     1.5   851.5    0.00 
  36    8:00   0.10   28.2    86    1.0   108     2.6   851.4    0.00 
  36    8:10   0.12   28.9    86    3.1    69     5.0   851.4    0.00 
  36    8:20   0.18   30.2    85    2.3    90     4.5   851.3    0.00 
  36    8:30   0.20   32.4    75    0.6    73     1.8   851.3    0.00 
  36    8:40   0.29   34.7    71    1.1    37     2.5   851.3    0.00 
  36    8:50   0.31   35.1    71    1.7   336     3.1   851.2    0.00 
  36    9:00   0.32   35.8    68    2.1     1     3.6   851.2    0.00 
  36    9:10   0.33   36.9    65    3.1    32     5.4   851.2    0.00 
  36    9:20   0.32   37.0    66    3.6    34     5.9   851.1    0.00 
  36    9:30   0.37   37.8    61    1.7     7     3.0   851.0    0.00 
  36    9:40   0.42   39.4    57    1.6   354     2.9   850.9    0.00 
  36    9:50   0.44   40.9    56    1.4   324     3.4   850.8    0.00 
  36   10:00   0.43   42.3    53    1.4   335     3.4   850.6    0.00 
  36   10:10   0.36   43.2    51    1.7   295     4.5   850.5    0.00 
  36   10:20   0.47   43.4    54    1.2   303     2.9   850.4    0.00 
  36   10:30   0.54   45.2    50    2.4   272     5.0   850.3    0.00 
  36   10:40   0.51   46.2    49    1.6   282     3.9   850.2    0.00 
  36   10:50   0.43   47.0    48    2.9   251     7.7   850.2    0.00 
  36   11:00   0.44   47.0    50    1.6    92     3.7   850.1    0.00 
  36   11:10   0.36   49.4    42    4.6   122     8.8   849.9    0.00 
  36   11:20   0.32   51.0    36    6.9   112    13.0   849.5    0.00 
  36   11:30   0.68   53.0    36    5.5   112    12.3   849.3    0.00 
  36   11:40   0.68   56.0    34   12.3   202    19.0   848.8    0.00 
  36   11:50   0.67   56.2    34   16.2   200    23.7   848.5    0.00 
  36   12:00   0.60   55.7    33   18.8   209    27.5   848.2    0.00 
  36   12:10   0.53   55.3    33   20.0   199    29.6   847.8    0.00 
  36   12:20   0.57   54.8    36   19.3   205    29.7   847.6    0.00 
  36   12:30   0.56   54.4    37   19.5   195    28.1   847.4    0.00 
  36   12:40   0.60   54.0    39   20.4   199    30.4   847.1    0.00 
  36   12:50   0.63   54.2    39   20.4   198    28.8   846.5    0.00 
  36   13:00   0.63   54.5    38   21.7   196    32.1   846.1    0.00 
  36   13:10   0.62   54.9    36   20.8   187    30.0   845.9    0.00 
  36   13:20   0.60   55.2    36   21.1   199    29.1   845.6    0.00 
  36   13:30   0.56   55.5    35   19.9   195    29.1   845.5    0.00 
  36   13:40   0.43   55.7    33   19.2   189    29.0   845.3    0.00 
  36   13:50   0.32   55.3    34   15.0   178    23.5   845.1    0.00 
  36   14:00   0.30   55.1    34   15.6   177    25.3   845.1    0.00 
  36   14:10   0.24   54.7    36   14.9   181    24.3   844.9    0.00 
  36   14:20   0.23   54.5    36   15.7   180    24.6   844.7    0.00 
  36   14:30   0.28   54.4    37   16.1   185    30.2   844.6    0.00 
  36   14:40   0.35   54.2    37   18.7   184    31.0   844.4    0.00 
  36   14:50   0.35   54.8    35   16.0   187    22.9   844.3    0.00 
  36   15:00   0.36   55.0    35   15.2   189    23.6   844.2    0.00 
  36   15:10   0.38   55.5    34   15.8   195    23.1   844.0    0.00 
  36   15:20   0.42   55.5    35   11.6   198    20.0   843.7    0.00 
  36   15:30   0.45   56.7    33   11.0   184    19.4   843.4    0.00 
  36   15:40   0.38   56.6    32   14.2   183    24.0   843.2    0.00 
  36   15:50   0.32   55.5    34   15.3   197    21.3   843.3    0.00 
  36   16:00   0.27   54.8    34   15.6   203    24.6   843.2    0.00 
  36   16:10   0.26   54.4    32   15.0   206    25.0   843.2    0.00 
  36   16:20   0.21   54.2    32   11.3   197    18.5   842.9    0.00 
  36   16:30   0.16   54.1    31    8.5   191    13.6   842.8    0.00 
  36   16:40   0.10   53.6    31    7.0   186    11.7   842.7    0.00 
  36   16:50   0.02   52.2    34    3.9   225     7.7   842.7    0.00 
  36   17:00   0.02   50.5    36    3.2   220     9.9   842.7    0.00 
  36   17:10   0.02   51.1    32    3.3   236     8.3   842.8    0.00 
  36   17:20   0.01   50.3    32    1.6   196     4.1   842.9    0.00 
  36   17:30   0.00   50.1    32    4.6   299     9.5   843.0    0.00 
  36   17:40   0.00   49.7    30    9.0   226    16.7   843.0    0.00 
  36   17:50   0.00   48.2    31    8.5   230    14.4   842.9    0.00 
  36   18:00   0.00   48.6    27   13.9   227    20.5   842.9    0.00 
  36   18:10   0.00   49.7    24   18.6   222    27.0   842.8    0.00 
  36   18:20   0.00   49.3    25   13.3   208    18.4   842.8    0.00 
  36   18:30   0.00   49.3    24   13.0   198    20.2   842.7    0.00 
  36   18:40   0.00   46.9    30    3.8   126     9.5   842.6    0.00 
  36   18:50   0.00   44.5    33    3.6   136     6.7   842.4    0.00 
  36   19:00   0.00   46.7    28   10.4   194    22.1   842.2    0.00 
  36   19:10   0.00   48.5    25   16.8   205    27.4   841.6    0.00 
  36   19:20   0.00   48.7    25   19.0   214    26.4   841.5    0.00 
  36   19:30   0.00   48.0    26   18.6   216    27.5   842.0    0.00 
  36   19:40   0.00   48.3    25   21.5   220    29.1   842.3    0.00 
  36   19:50   0.00   48.2    28   23.3   223    30.5   842.4    0.00 
  36   20:00   0.00   45.9    44   27.7   214    37.6   842.6    0.00 
  36   20:10   0.00   43.5    54   28.8   210    43.6   842.4    0.00 
  36   20:20   0.00   41.2    63   29.4   212    39.7   842.3    0.00 
  36   20:30   0.00   40.2    66   30.5   213    41.1   842.0    0.00 
  36   20:40   0.00   40.0    65   32.5   212    43.9   841.7    0.00 

Return to Smith Valley graphs page.


Western Regional Climate Center,wrcc@dri.edu